岡山グライダークラブ活動状況掲示板

岡山グライダークラブ
岡山市浦安南町639-1 岡南飛行場
 使用機:シャイベ式 SF25C型 ファルケ   JA2330
      ヴァレンティン式17E型 タイフーン  JA2342
 練習日:毎日曜日  クラブルーム:電話 086-265-1810
この掲示板は岡山グライダークラブの活動状況をお知らせする掲示板です。
!!!この掲示板は投稿規制をしています。!!!
クラブ関連各種情報は 岡山グライダークラブクラブルーム      を       .
  ブリーフイング情報は  岡山グライダークラブブリーフィングルーム  をご覧下さい。 .
※写真はクリックすると拡大して見ることが出来ます。
岡南飛行場へのアクセス等は 岡南飛行場管理事務所 をご覧ください。
クラブの ホームページ ができました。

!!!当クラブの見学等を希望される方は こちら をご覧ください!!!

 
02月14日
by OGC at 2021/2/14(日) 11:34:44 No.20210214111846  削除コメント
960 x 720 x 33,327バイト
No.1

02月14日
本日のリモート参加者
  会員      10名
  その他      0名


@本日の様子






METAR
RJBK 140000Z 16003KT 15KM FEW025CU 09/08 Q1021 A3016
RJOB 140000Z 06006KT 9999 FEW020 SCT120 11/09 Q1020
RJOT 140000Z VRB02KT 9999 FEW020 SCT130 12/09 Q1020
RJOA 140000Z 12004KT 100V160 9999 FEW030 BKN050 11/08 Q1020
TAF
RJOB 132310Z 1400/1506 12006KT 9999 FEW020 BKN040
       TEMPO 1412/1415 4000 -RA BR BCFG FEW000 SCT005 BKN008
       TEMPO 1415/1500 3000 RA BR BCFG FEW000 BKN005 BKN008
       BECMG 1500/1503 29012KT
RJOT 132311Z 1400/1506 09005KT 9999 FEW025 SCT050
       TEMPO 1415/1421 4000 RA BR BCFG FEW000 SCT005 BKN008
       BECMG 1421/1500 27015KT
       TEMPO 1421/1500 2000 SHRA BR BCFG FEW000 SCT003 BKN005
       TEMPO 1503/1506 28020G30KT
RJOA 062306Z 132307Z 1400/1506 12007KT 9999 FEW025 SCT045
       TEMPO 1412/1421 3000 RA BR BCFG FEW000 SCT003 BKN005
       BECMG 1418/1421 30013KT
       TEMPO 1421/1500 4000 SHRA BR BCFG FEW000 SCT005 BKN008
       TEMPO 1503/1506 29017G27KT

本日、第4回リモートブリーフィングを開催し、航空安全講習会(web参加)の報告やXcsoarの利用の仕方について講義がありました。


集合 10:00 解散    11:10

本日のフライトはありません。

    << 戻る || ホームページ || 最新の掲示板へ